EHAK

A12-cpp Sea

A12-cpp Sea, The Netherlands
METAR EHAK 220625Z AUTO 15024KT 9999 NSC 09/06 Q1012 W///H///
Observed Flight Rules
Apr-22 @ 06:25 UTC (34 minutes ago) Visual Flight Rules
Wind Visibility Clouds
150° at 24 knots 10,000+ meters
  • Clear skies
Temperatures Readings
Current 9°C / 48°F
Dewpoint 6°C / 43°F
Humidity 82%
Altimeter 29.88" Hg
Pressure 1012 hPa
Elevation 50
METAR EHAK 220625Z AUTO 15024KT 9999 NSC 09/06 Q1012 W///H///
Observed Flight Rules
Apr-22 @ 06:25 UTC
(34 minutes ago)
VFR
Wind Visibility
150° at 24 knots 10,000+ meters
Clouds
  • Clear skies
Temperature Dewpoint
9°C / 48°F 6°C / 43°F
Humidity Altimeter Pressure
82% 29.88" Hg 1012 hPa